Timeline UpdatesTrip UpdatesNews PostsPvt Posts♥♥Travel TipsAdmin PostsConv PostsFollowed PostsChat RequestsBlog PostsPNR Posts

Disclaimer
Search
 
 
Fri Dec 19, 2014 10:11:07 ISTHomeTrainsΣChainsAtlasPNRForumGalleryNewsFAQTripsMembersLoginFeedback
No Recent News for this Train
Other Trains in the News **new
Latest...
MST holders permitted to travel in IInd class general coaches between Delhi-Panipat-Ambala.
Sun Nov 23, 2014 (07:52PM)
⇐ Return Journey: Train# 11058

11057/Mumbai LTT - Amritsar (Pathankot) Express

Time-Table HAS CHANGED.
Nov 23 (7:52PM)
Change Departure Station:
Change Arrival Station:
Post a Train Travel TipPost a Train Travel Tip **new
Post a Comment/Question/Picture/VideoPost a Comment/Question/Picture/Video
Pantry/Catering
✕ NO Pantry Car
✓ Catering Avbl
RSA - Rake Sharing
No RSA
Rake/Coach Composition
LOCO-SLR-GEN-GEN-MILITARY-A1-B1-B2-B3-S8-S7-S6-S5-S4-S3-S2-S1-RMS-LDS-[B4-S9-S10-SLR]. ; [B4-S9-S10-SLR] -> Is the Slip portion for Dhule and bifurcates from the main train at Chalisgaon.
Loco
LTT-UMB --> GZB WAP-1/4/5/7 UMB-ASR --> TKD WDM3A/WDP3A
News    PNR    Forum    Time-Table    Availability    Fare Chart    Map    Arr/Dep History    Trips    Gallery    ΣChains    X/O    Timeline    
Travel Time: 8h 58m    18 halts    Distance: 501 km    Avg Speed: 55 km/hr
Type: Mail/Express
Zone: CR/Central
Departs @ 18:23 (Avg 30m late)
Platform# ???
SMTWTFS
Dhaura/DUA 
Arrives @ 03:21 +1 night (Avg 1h 10m late)
Platform# 2
SMTWTFS
Faridabad/FDB 

18 halts. 63 intermediate Stations between Dhaura and Faridabad

Show ALL intermediate Stations  Show Old Time-Table

#TrkCodeStation NameX/OArrivesAvgDepartsAvgHaltPFDay#KmSpeedElevZoneAddress
1/==/LTTMumbai Lokmanya Tilak Terminus (5)  -23:45+231-997.8437mCRMumbai - 400089, Maharashtra
2/==/TNAThane (10)  00:07 00:08+300:10+43 2m72-981.36110mCRThane (West) 400602, Maharashtra
3/==/KYNKalyan Junction (8)  00:30+1400:35 00:33+185 3m42-961.16210mCRKalyan 421301, Maharashtra
4/==/KSRAKasara (4)XO  01:43 01:38+2001:45 01:40+262m12-893.725290mCRDist. Thane 421602, Maharashtra
5/==/IGPIgatpuri (4)X02:15+1402:20+205m22-879.363589mCRIgatpuri 422403, Maharashtra
6/==/DVLDevlali (3)X  03:08 03:03+1803:10 03:05+192m12-834.469561mCRDist. Nashik 422401, Maharashtra
7/==/NKNasik Road (3)XO  03:15 03:10+2103:20 03:15+205m12-828.793563mCRNashik 422101, Maharashtra
8/==/MMRManmad Junction (6)X  04:05 04:02+2404:10 04:05+245 3m22-755.976580mCRManmad 423104, Maharashtra
9/==/CSNChalisgaon Junction (3)  05:03 04:58+2205:05 05:00+252m--2-688.496352mCRChalisgaon 424101, Maharashtra
10/==/PCPachora Junction (4)  05:33 05:28+3005:35 05:30+302m--2-643.587264mCRPachora 424201, Maharashtra
11/==/JLJalgaon Junction (4)X  06:08 06:03+3206:10 06:05+332m32-595.858213mCRJalgaon 425001, Maharashtra
12/==/BSLBhusaval Junction (8)X  06:40 06:30+3406:50 06:45+3310 15m62-571.751208mCRBhusaval 425201, Maharashtra
13/==/SAVSavda (2)XO  07:03+3407:05+332m--2-556.3105220mCRSavda, Maharashtra
14/==/NBNimbhora (2)XO  07:13 07:10+3707:15 07:12+372m--2-547.676229mCRJalgaon, Maharashtra
15/==/RVRaver (2)X  07:23 07:20+3907:25 07:22+392m--2-537.476242mCRJalgaon, Maharashtra
16/==/BAUBurhanpur (2)  07:43 07:38+4007:45 07:40+402m22-517.287269mCRBurhanpur, Madhya Pradesh
17/==/NPNRNepanagar (2)  08:03 07:58+4308:05 08:00+432m--2-491.030289mCRState Highway 27, Madhya Pradesh
18/==/KNWKhandwa Junction (5)X  09:35 09:25+309:40 09:30+65m22-448.341310mCRKhandwa, Madhya Pradesh
19/==/TLVTalvadiya (2)XO  09:53+209:55+72m--2-432.699308mWCRKhandwa, Madhya Pradesh
20/==/CAERChhanera (2)XO  10:13+1210:15+182m--2-402.988283mWCRChhanera, Madhya Pradesh
21/==/KKNKhirkiya (2)X  10:36+2010:38+212m22-372.273281mWCRSH 15, Madhya Pradesh
22/==/HDHarda (3)  11:04+1911:06+192m--2-340.761289mWCRHarda, Madhya Pradesh
23/==/TBNTimarni (2)  11:20+1911:22+272m--2-326.640308mWCRTimarni, Madhya Pradesh
24/==/BPFBanapura (2)  12:04+1112:06+142m--2-298.451314mWCRBanapura, Madhya Pradesh
25/==/ETItarsi Junction (7)X  12:50 12:45+1212:55 12:50+195m12-264.968329mWCRItarsi 461111, Madhya Pradesh
26/==/HBDHoshangabad (2)X  13:13 13:06+2613:15 13:08+262m--2-246.842308mWCRHoshangabad, Madhya Pradesh
27/==/BNIBudni (2)  13:25 13:18+2713:27 13:20+282m--2-239.949311mWCRSehore 466445 Madhya pradesh, Madhya Pradesh
28/==/ODGObaidulla GanjO  14:03 13:58+3514:05 14:00+362m22-209.158448mWCRObaidullaganj Raisen Dist., Madhya Pradesh
29/==/MDDPMandi Dip (1)  14:19 14:14+3514:21 14:16+352m12-195.557455mWCRMandideep, Madhya Pradesh
30/==/HBJBhopal HabibGanj (5)X  14:38 14:33+3814:40 14:35+402m12-179.415496mWCRHabibGanj, Madhya Pradesh
31/==/BPLBhopal Junction (6)  15:05 15:00+2915:10 15:05+365m22-173.274497mWCRBhopal, Madhya Pradesh
32/==/SCISanchi (2)XO  15:41+3515:43+372m22-129.043428mWCRRaisen, Madhya Pradesh
33/==/BHSVidisha (3)  15:56+3215:58+322m12-119.670433mWCRVidisha, Madhya Pradesh
34/==/GLGGulabhGanj (3)  16:16+3516:18+352m12-98.692433mWCRVidisha, Madhya Pradesh
35/==/BAQGanj Basoda (4)X  16:30+3416:32+342m12-80.371415mWCRVidisha, Madhya Pradesh
36/==/MABAMandi Bamora (3)XO  16:56+3416:58+342m12-51.825413mWCRState Highway 14, Madhya Pradesh
37/==/BINABina Junction (5)X  17:40+1517:45+175m32-34.658414mWCRJn Pt - KATNI/GUNA/ BPL/JHS, Madhya Pradesh
38/==/DUADhaura (3)»X  18:21+3018:23+302m--20.058407mNCRDhaura Tanda, Madhya Pradesh
39/==/JLNJakhalaun (3)  18:36 18:35+2818:37+281 2m1211.672394mNCRLalitpur(05176-272220), Uttar Pradesh
40/==/LARLalitpur (3)  18:51+2918:53+292m3228.386373mNCRLalitpur, Uttar Pradesh
41/==/TBTTalbahat (4)X  19:21+3619:23+362m3268.259314mNCRKhaniyadhana Station Rd, Madhya Pradesh
42/==/BZYBasai (3)  19:36+3819:38+382m2281.060287mNCR07522289600(Gate ManMob. - 9452701575), Madhya Pradesh
43/==/BABBabina (3)X  19:50+4019:52+402m1293.140285mNCRBabina, Uttar Pradesh
44/==/JHSJhansi Junction (7)X  20:30+3520:38+408m52118.668259mNCRJhansi, Uttar Pradesh
45/==/DAADatia (2)X  21:00+4421:02+442m--2143.763264mNCRDatia, Madhya Pradesh
46/==/SORSonagir (2)X  21:13+4421:15+442m--2155.271211mNCRDatia, Madhya Pradesh
47/==/DBADabra (3)X  21:31+4621:33+472m--2174.069207mNCRDabra(District-Gwalior), Madhya Pradesh
48/==/GWLGwalior Junction (4)X  22:10+5222:18+508m22216.493214mNCRGwalior, Madhya Pradesh
49/==/MRAMorena (3)X  22:43+1:0122:45+1:012m22254.970176mNCRMorena, Madhya Pradesh
50/==/DHODholpur Junction (3)X  23:08+1:0323:10+1:052m12281.854177mNCRDholpur, Rajasthan
51/==/AGCAgra Cantt. (6)X  00:08+1:1100:18 00:16+1:1410 8m23334.427174mNCRAgra, Uttar Pradesh
52/==/RKMRaja Ki Mandi (4)  00:25+1:2000:27+1:202m13338.469170mNCRAgra, Uttar Pradesh
53/==/MTJMathura Junction (10)  01:10+1:2201:20 01:15+1:2210 5m33388.075179mNCRMathura, Uttar Pradesh
54/==/KSVKosi Kalan (3)  01:48+1:2801:50+1:292m13429.544189mNCRKosi Kalan, Uttar Pradesh
55/==/PWLPalwal (8)  02:48+1:0202:50+1:022m--3472.071200mNRPalwal, Haryana
56/==/BVHBallabgarh (5)  03:08+1:0903:10+1:092m33493.144203mNRFaridabad, Haryana
57/==/FDBFaridabad (4)•  03:21+1:1003:23+1:102m23501.252206mNRold Faridabad, Haryana
58/==/NZMDelhi Hazrat Nizamuddin (7)X  03:47+1:1603:49+1:162m33522.017209mNRNew Delhi 110013, Delhi NCT
59/==/NDLSNew Delhi (16)  04:10 04:15+1:1304:30+1:1520 15m23529.415215mNRNew Delhi 110002, Delhi NCT
60/==/SZMDelhi Sabzi Mandi (2)  04:46+1:2504:48+1:252m--3533.549220mNRGulabi Bagh, Delhi NCT
61/==/BHDBadli (2)XO  05:01+1:2705:03+1:272m--3544.151217mNRRohini, Delhi NCT
62/==/NURNarela (2)X  05:17 05:18+1:2705:19 05:20+1:292m--3556.837222mNRNarela, Delhi NCT
63/==/SNPSonipat (3)X  05:46 05:48+1:2005:48 05:50+1:252m--3573.960225mNRSonipat, Haryana
64/==/GNUGanaur  06:00 06:06+1:2306:02 06:08+1:242m--3589.757222mNRGanaur, Haryana
65/==/SMKSamalkha (3)  06:21+1:1906:23+1:282m--3602.054229mNRSamalkha, Haryana
66/==/PNPPanipat Junction (5)  06:38 06:42+1:1906:40 06:44+1:202m33619.064235mNRPanipat, Haryana
67/==/GRAGharaunda (2)  07:00+1:2307:02+1:252m--3635.966244mNRGharaunda, Haryana
68/==/KUNKarnal (3)  07:18+1:2407:20+1:242m23653.452253mNRKarnal, Haryana
69/==/TRRTaraori (2)  07:34+1:2007:36 07:35+1:212 1m--3665.526255mNRTaraori, Haryana
70/==/NLKRNilokheri (2)XO  07:44+1:2007:46 07:45+1:242 1m--3669.534254mNRNilokheri, Haryana
71/==/KKDEKurukshetra Junction (3)  08:20 08:15+1:0308:22 08:17+1:042m13686.578260mNRKurukshetra, Haryana
72/==/SHDMShahbad Markanda (2)X  08:43 08:34+1:0308:45 08:36+1:032m23708.727267mNRShahabad Markanda, Haryana
73/==/UMBAmbala Cantt. Junction (7)X09:20+5909:40+1:0620m63728.638278mNRAmbala 133001, Haryana
74/==/UBCAmbala City (3)X  09:52+1:1009:54+1:112m33736.282273mNRNH-1, Haryana
75/==/RPJRajpura Junction (3)  10:11 10:09+1:1610:13 10:11+1:162m13756.755272mNRNH-1., Punjab
76|--|PTAPatiala (4)X  10:35 10:38+1:2010:40+1:235 2m13781.552256mNRPatiala, Punjab
77|--|NBANabha (1)  11:08 11:10+1:1511:10 11:12+1:162m13807.349250mNRNabha, Punjab
78|--|DUIDhuri Junction (4)  11:45+1:1311:50+1:145m--3834.372248mNRDhuri, Punjab
79|--|METMalerkotla (2)X  12:07 12:04+1:2012:09 12:06+1:212m13851.128248mNRMalerkotla., Punjab
80|--|AHHAhmadgarh (1)  12:48+1:0612:50+1:072m13870.944256mNRAhmedgarh, Punjab
81|--|LDHLudhiana Junction (7)X  13:25+1:0813:35+1:1410m33896.434246mNRLudhiana 141001, Punjab
82/==/PHRPhillaur Junction (3)X  13:58+1:0514:00+1:052m23909.464246mNRPhillaur, Punjab
83/==/GRYGoraya (2)X  14:12+1:0514:14+1:052m23922.254240mNRGoraya, Punjab
84/==/PGWPhagwara Junction (3)X  14:25+1:0314:27+1:042m23932.070245mNRPhagwara, Punjab
85/==/JRCJalandhar Cantt. Junction (3)X  14:41+1:0814:43+1:082m13948.324239mNRNear Rama Mandi, Punjab
86/==/JUCJalandhar City Junction (5)  14:55+5915:00+1:025m13953.156239mNRJalandhar 144001, Punjab
87/==/BEASBeas Junction (2)X  15:39+1:0215:41+1:022m13989.280238mNRBeas, Punjab
88/==/JNLJandiala (2)X  15:59+1:0016:01+1:002m131013.140238mNRJandiala, Punjab
89/==/ASRAmritsar Junction (5)  16:30+50-431032.3-233mNRAmritsar 143002, Punjab
Scroll to Top
Scroll to Bottom


Go to Mobile site